Time;durP1;ratioP1;P1;durP2;ratioP2;P2;SDS_P1;SDS_P2;PMS_P1;PMS_P2;Temp;Humidity;BMP_temperature;BMP_pressure;BME280_temperature;BME280_humidity;BME280_pressure;Samples;Min_cycle;Max_cycle;Signal;HPM_P1;HPM_P2
2023/03/27 00:00:55;;;;;;;0.40;0.40;;;6.30;99.90;;;;;;5109673;28;20515;-83
2023/03/27 00:03:24;;;;;;;0.40;0.33;;;6.20;99.90;;;;;;5107610;28;20466;-80
2023/03/27 00:06:00;;;;;;;0.50;0.40;;;6.20;99.90;;;;;;5108246;28;20434;-77
2023/03/27 00:08:28;;;;;;;1.17;0.50;;;6.10;99.90;;;;;;5109990;28;20537;-81
2023/03/27 00:10:55;;;;;;;0.70;0.60;;;6.10;99.90;;;;;;5103635;28;20462;-80
2023/03/27 00:13:23;;;;;;;1.37;0.60;;;6.10;99.90;;;;;;5099896;28;20953;-79
2023/03/27 00:15:52;;;;;;;1.03;0.90;;;6.10;99.90;;;;;;5105858;28;20957;-81
2023/03/27 00:18:21;;;;;;;0.60;0.60;;;6.00;99.90;;;;;;5107810;28;20474;-79
2023/03/27 00:20:49;;;;;;;0.50;0.50;;;6.00;99.90;;;;;;5113636;28;20462;-76
2023/03/27 00:23:16;;;;;;;0.50;0.50;;;6.00;99.90;;;;;;5110077;28;20455;-77
2023/03/27 00:25:45;;;;;;;0.70;0.60;;;6.00;99.90;;;;;;5115486;28;20461;-76
2023/03/27 00:28:12;;;;;;;2.93;1.27;;;6.00;99.90;;;;;;5122310;28;20482;-76
2023/03/27 00:30:40;;;;;;;0.70;0.67;;;6.00;99.90;;;;;;5111277;28;20455;-79
2023/03/27 00:33:08;;;;;;;0.90;0.73;;;6.00;99.90;;;;;;5104715;28;20466;-79
2023/03/27 00:35:35;;;;;;;0.70;0.67;;;6.00;99.90;;;;;;5097028;28;20500;-78
2023/03/27 00:38:02;;;;;;;1.30;0.80;;;6.00;99.90;;;;;;5099563;28;20454;-77
2023/03/27 00:40:31;;;;;;;1.03;0.73;;;6.00;99.90;;;;;;5102659;28;20465;-78
2023/03/27 00:42:59;;;;;;;0.90;0.70;;;6.00;99.90;;;;;;5109828;28;20511;-78
2023/03/27 00:45:29;;;;;;;1.63;0.80;;;6.00;99.90;;;;;;5102769;28;20455;-78
2023/03/27 00:48:00;;;;;;;0.70;0.67;;;6.00;99.90;;;;;;5098742;28;20852;-79
2023/03/27 00:50:32;;;;;;;0.73;0.70;;;6.00;99.90;;;;;;5102480;28;21128;-78
2023/03/27 00:53:05;;;;;;;0.70;0.60;;;5.90;99.90;;;;;;5103379;28;20995;-80
2023/03/27 00:55:36;;;;;;;2.00;0.60;;;6.00;99.90;;;;;;5096417;28;20865;-79
2023/03/27 00:58:09;;;;;;;4.63;0.50;;;5.90;99.90;;;;;;5102244;28;20511;-81
2023/03/27 01:00:37;;;;;;;0.97;0.50;;;6.00;99.90;;;;;;5096285;28;20475;-78
2023/03/27 01:03:08;;;;;;;0.53;0.53;;;5.90;99.90;;;;;;5106866;28;20895;-77
2023/03/27 01:05:36;;;;;;;0.90;0.40;;;5.90;99.90;;;;;;5098893;28;20442;-78
2023/03/27 01:08:04;;;;;;;1.67;0.50;;;5.90;99.90;;;;;;5102993;28;20491;-78
2023/03/27 01:10:47;;;;;;;0.40;0.40;;;5.80;99.90;;;;;;5106334;28;20454;-80
2023/03/27 01:13:31;;;;;;;1.00;0.50;;;5.90;99.90;;;;;;5100607;28;20935;-80
2023/03/27 01:16:04;;;;;;;0.90;0.70;;;5.80;99.90;;;;;;5087238;28;20455;-80
2023/03/27 01:18:40;;;;;;;1.00;0.60;;;5.80;99.90;;;;;;5095256;28;20515;-78
2023/03/27 01:21:40;;;;;;;0.87;0.63;;;5.90;99.90;;;;;;5095734;28;20488;-81
2023/03/27 01:24:44;;;;;;;1.67;0.60;;;5.80;99.90;;;;;;5101354;28;20444;-79
2023/03/27 01:27:19;;;;;;;0.60;0.57;;;5.80;99.90;;;;;;5105346;28;20486;-79
2023/03/27 01:30:04;;;;;;;0.80;0.70;;;5.80;99.90;;;;;;5099780;28;20514;-79
2023/03/27 01:33:17;;;;;;;3.97;0.57;;;5.80;99.90;;;;;;5104975;28;20911;-78
2023/03/27 01:36:22;;;;;;;0.70;0.63;;;5.70;99.90;;;;;;5100891;28;20455;-78
2023/03/27 01:39:28;;;;;;;0.70;0.57;;;5.70;99.90;;;;;;5062520;28;20455;-75
2023/03/27 01:42:02;;;;;;;0.90;0.90;;;5.70;99.90;;;;;;5102775;28;20485;-76
2023/03/27 01:44:36;;;;;;;0.80;0.60;;;5.70;99.90;;;;;;5106019;28;20974;-76
2023/03/27 01:47:09;;;;;;;1.83;0.80;;;5.60;99.90;;;;;;5105300;28;21258;-75
2023/03/27 01:49:40;;;;;;;0.90;0.90;;;5.60;99.90;;;;;;5107276;28;20450;-75
2023/03/27 01:52:12;;;;;;;1.33;0.80;;;5.60;99.90;;;;;;5106068;28;20458;-77
2023/03/27 01:54:44;;;;;;;1.00;0.87;;;5.60;99.90;;;;;;5102829;28;20512;-77
2023/03/27 01:57:19;;;;;;;0.90;0.80;;;5.60;99.90;;;;;;5106503;28;21010;-77
2023/03/27 01:59:51;;;;;;;0.83;0.83;;;5.60;99.90;;;;;;5106740;28;20536;-79
2023/03/27 02:02:22;;;;;;;1.33;1.00;;;5.60;99.90;;;;;;5097001;28;20459;-77
2023/03/27 02:04:54;;;;;;;2.57;1.17;;;5.60;99.90;;;;;;5102622;28;20531;-77
2023/03/27 02:07:27;;;;;;;0.90;0.90;;;5.60;99.90;;;;;;5107498;28;20593;-77
2023/03/27 02:09:59;;;;;;;0.93;0.90;;;5.50;99.90;;;;;;5104628;28;20466;-77
2023/03/27 02:12:31;;;;;;;3.60;1.17;;;5.50;99.90;;;;;;5106659;28;20459;-75
2023/03/27 02:15:06;;;;;;;0.80;0.80;;;5.50;99.90;;;;;;5107030;28;20458;-77
2023/03/27 02:17:38;;;;;;;0.80;0.80;;;5.50;99.90;;;;;;5106299;28;20446;-77
2023/03/27 02:20:13;;;;;;;0.90;0.70;;;5.50;99.90;;;;;;5099514;28;20466;-76
2023/03/27 02:22:41;;;;;;;1.10;1.00;;;5.50;99.90;;;;;;5105214;28;20455;-77
2023/03/27 02:25:30;;;;;;;0.80;0.70;;;5.50;99.90;;;;;;5094950;28;20460;-77
2023/03/27 02:28:21;;;;;;;0.60;0.60;;;5.50;99.90;;;;;;5093635;28;20550;-77
2023/03/27 02:30:58;;;;;;;1.20;0.80;;;5.50;99.90;;;;;;5096337;28;20526;-76
2023/03/27 02:33:34;;;;;;;0.90;0.80;;;5.60;99.90;;;;;;5107579;28;20450;-79
2023/03/27 02:36:19;;;;;;;1.30;1.20;;;5.50;99.90;;;;;;5107156;28;20443;-76
2023/03/27 02:38:53;;;;;;;4.37;0.97;;;5.50;99.90;;;;;;5101144;28;20527;-77
2023/03/27 02:41:30;;;;;;;1.00;0.80;;;5.50;99.90;;;;;;5102144;28;20465;-77
2023/03/27 02:44:04;;;;;;;1.10;1.00;;;5.60;99.90;;;;;;5107585;28;20447;-77
2023/03/27 02:46:37;;;;;;;0.80;0.80;;;5.50;99.90;;;;;;5099137;28;20473;-75
2023/03/27 02:49:09;;;;;;;1.27;1.17;;;5.60;99.90;;;;;;5108647;28;20492;-78
2023/03/27 02:51:40;;;;;;;0.80;0.80;;;5.60;99.90;;;;;;5098352;28;21090;-79
2023/03/27 02:54:10;;;;;;;1.00;0.90;;;5.60;99.90;;;;;;5103387;28;20529;-78
2023/03/27 02:56:45;;;;;;;1.00;0.87;;;5.60;99.90;;;;;;5114986;28;20432;-76
2023/03/27 02:59:16;;;;;;;0.93;0.87;;;5.60;99.90;;;;;;5132204;27;20459;-76
2023/03/27 03:01:44;;;;;;;1.70;0.80;;;5.60;99.90;;;;;;5112587;28;20791;-77
2023/03/27 03:04:16;;;;;;;0.87;0.80;;;5.60;99.90;;;;;;5097152;28;20539;-78
2023/03/27 03:06:44;;;;;;;1.40;1.30;;;5.60;99.90;;;;;;5101035;28;20448;-76
2023/03/27 03:09:13;;;;;;;0.90;0.90;;;5.60;99.90;;;;;;5098955;28;20479;-76
2023/03/27 03:11:48;;;;;;;1.27;1.03;;;5.60;99.90;;;;;;5104794;28;20968;-77
2023/03/27 03:14:17;;;;;;;2.13;1.13;;;5.60;99.90;;;;;;5099548;28;20458;-75
2023/03/27 03:16:44;;;;;;;1.17;1.07;;;5.60;99.90;;;;;;5099117;28;20515;-76
2023/03/27 03:19:11;;;;;;;1.27;0.90;;;5.60;99.90;;;;;;5106364;28;20481;-77
2023/03/27 03:21:39;;;;;;;1.10;0.97;;;5.60;99.90;;;;;;5103783;28;20447;-77
2023/03/27 03:24:07;;;;;;;1.70;1.33;;;5.60;99.90;;;;;;5105359;28;20473;-77
2023/03/27 03:26:34;;;;;;;3.70;1.27;;;5.60;99.90;;;;;;5102229;28;20591;-76
2023/03/27 03:29:03;;;;;;;2.07;1.50;;;5.60;99.90;;;;;;5103439;28;20571;-77
2023/03/27 03:31:42;;;;;;;1.70;1.60;;;5.60;99.90;;;;;;5102861;28;20470;-75
2023/03/27 03:34:10;;;;;;;1.37;1.27;;;5.60;99.90;;;;;;5107341;28;20455;-81
2023/03/27 03:36:37;;;;;;;1.20;1.00;;;5.60;99.90;;;;;;5108302;28;20488;-80
2023/03/27 03:39:04;;;;;;;0.70;0.60;;;5.60;99.90;;;;;;5108917;28;20450;-79
2023/03/27 03:41:31;;;;;;;0.67;0.63;;;5.60;99.90;;;;;;5109490;28;20820;-78
2023/03/27 03:43:58;;;;;;;1.13;0.80;;;5.60;99.90;;;;;;5109828;28;20450;-78
2023/03/27 03:46:27;;;;;;;0.70;0.50;;;5.60;99.90;;;;;;5103306;28;21150;-79
2023/03/27 03:48:55;;;;;;;2.20;2.00;;;5.60;99.90;;;;;;5100130;28;20498;-78
2023/03/27 03:51:22;;;;;;;0.63;0.60;;;5.60;99.90;;;;;;5104709;28;20473;-77
2023/03/27 03:53:49;;;;;;;1.27;0.80;;;5.60;99.90;;;;;;5109558;28;20508;-76
2023/03/27 03:56:16;;;;;;;0.60;0.60;;;5.50;99.90;;;;;;5108069;28;20443;-77
2023/03/27 03:58:43;;;;;;;0.90;0.70;;;5.60;99.90;;;;;;5108303;28;20442;-77
2023/03/27 04:01:10;;;;;;;0.93;0.60;;;5.60;99.90;;;;;;5106660;28;20458;-76
2023/03/27 04:03:40;;;;;;;0.40;0.40;;;5.60;99.90;;;;;;5106472;28;21046;-78
2023/03/27 04:06:07;;;;;;;0.60;0.60;;;5.60;99.90;;;;;;5104646;28;20455;-76
2023/03/27 04:08:35;;;;;;;0.60;0.50;;;5.60;99.90;;;;;;5102514;28;20840;-77
2023/03/27 04:11:03;;;;;;;1.00;0.60;;;5.60;99.90;;;;;;5109619;28;20781;-78
2023/03/27 04:13:30;;;;;;;0.60;0.50;;;5.60;99.90;;;;;;5109738;28;20458;-78
2023/03/27 04:16:00;;;;;;;1.53;0.50;;;5.60;99.90;;;;;;5108502;28;20515;-75
2023/03/27 04:18:29;;;;;;;0.50;0.50;;;5.60;99.90;;;;;;5099548;28;20541;-75
2023/03/27 04:20:57;;;;;;;0.50;0.50;;;5.60;99.90;;;;;;5108545;28;20981;-75
2023/03/27 04:23:29;;;;;;;0.60;0.57;;;5.60;99.90;;;;;;5101940;28;20535;-77
2023/03/27 04:25:58;;;;;;;0.60;0.50;;;5.60;99.90;;;;;;5093868;28;20447;-78
2023/03/27 04:28:26;;;;;;;0.83;0.67;;;5.60;99.90;;;;;;5106888;28;20564;-77
2023/03/27 04:30:53;;;;;;;0.90;0.53;;;5.60;99.90;;;;;;5106563;28;20463;-78
2023/03/27 04:33:21;;;;;;;1.70;0.50;;;5.60;99.90;;;;;;5106612;28;20481;-78
2023/03/27 04:35:51;;;;;;;0.60;0.50;;;5.60;99.90;;;;;;5105646;28;20524;-77
2023/03/27 04:38:19;;;;;;;0.60;0.60;;;5.60;99.90;;;;;;5098426;28;21013;-78
2023/03/27 04:40:48;;;;;;;0.70;0.60;;;5.60;99.90;;;;;;5105079;28;20459;-77
2023/03/27 04:43:16;;;;;;;0.63;0.63;;;5.60;99.90;;;;;;5103728;28;20453;-76
2023/03/27 04:45:46;;;;;;;0.80;0.80;;;5.60;99.90;;;;;;5108181;28;20463;-78
2023/03/27 04:48:13;;;;;;;0.60;0.60;;;5.60;99.90;;;;;;5104624;28;20482;-79
2023/03/27 04:50:42;;;;;;;0.63;0.63;;;5.60;99.90;;;;;;5105012;28;20454;-78
2023/03/27 04:53:09;;;;;;;0.60;0.60;;;5.60;99.90;;;;;;5102960;28;20475;-77
2023/03/27 04:55:38;;;;;;;1.33;0.60;;;5.60;99.90;;;;;;5102730;28;20470;-78
2023/03/27 04:58:05;;;;;;;1.00;1.00;;;5.60;99.90;;;;;;5104773;28;21386;-76
2023/03/27 05:00:32;;;;;;;1.53;1.10;;;5.60;99.90;;;;;;5105016;28;20989;-80
2023/03/27 05:03:00;;;;;;;2.30;0.80;;;5.60;99.90;;;;;;5097177;28;20511;-78
2023/03/27 05:05:27;;;;;;;0.60;0.60;;;5.60;99.90;;;;;;5098821;28;20545;-77
2023/03/27 05:07:54;;;;;;;1.00;0.77;;;5.60;99.90;;;;;;5097613;28;20491;-77
2023/03/27 05:10:21;;;;;;;0.70;0.63;;;5.50;99.90;;;;;;5101095;28;20462;-76
2023/03/27 05:12:51;;;;;;;1.80;1.13;;;5.50;99.90;;;;;;5104095;28;20466;-77
2023/03/27 05:15:19;;;;;;;0.73;0.73;;;5.50;99.90;;;;;;5105821;28;20494;-77
2023/03/27 05:17:51;;;;;;;0.80;0.60;;;5.50;99.90;;;;;;5097576;28;20509;-78
2023/03/27 05:20:19;;;;;;;0.93;0.70;;;5.50;99.90;;;;;;5100575;28;20455;-80
2023/03/27 05:22:46;;;;;;;2.33;0.70;;;5.50;99.90;;;;;;5109109;28;20466;-78
2023/03/27 05:25:13;;;;;;;1.20;0.70;;;5.50;99.90;;;;;;5106957;28;20450;-78
2023/03/27 05:27:45;;;;;;;0.40;0.40;;;5.40;99.90;;;;;;5106623;28;21021;-78
2023/03/27 05:30:14;;;;;;;0.50;0.43;;;5.50;99.90;;;;;;5121738;28;20442;-78
2023/03/27 05:32:47;;;;;;;3.10;0.70;;;5.50;99.90;;;;;;5126437;27;20442;-77
2023/03/27 05:35:15;;;;;;;0.50;0.50;;;5.50;99.90;;;;;;5104560;28;20485;-77
2023/03/27 05:37:46;;;;;;;0.70;0.60;;;5.40;99.90;;;;;;5101410;28;20455;-77
2023/03/27 05:40:14;;;;;;;0.60;0.50;;;5.50;99.90;;;;;;5098495;28;20463;-77
2023/03/27 05:42:43;;;;;;;1.10;0.70;;;5.40;99.90;;;;;;5096725;28;20458;-77
2023/03/27 05:45:11;;;;;;;1.00;0.80;;;5.50;99.90;;;;;;5098367;28;20975;-80
2023/03/27 05:47:46;;;;;;;0.70;0.70;;;5.50;99.90;;;;;;5106691;28;20459;-80
2023/03/27 05:50:13;;;;;;;0.70;0.70;;;5.40;99.90;;;;;;5104997;28;20469;-79
2023/03/27 05:52:40;;;;;;;1.37;0.90;;;5.50;99.90;;;;;;5101797;27;20538;-77
2023/03/27 05:55:09;;;;;;;1.00;0.70;;;5.50;99.90;;;;;;5093889;28;20463;-78
2023/03/27 05:57:37;;;;;;;1.63;1.53;;;5.50;99.90;;;;;;5103577;28;20446;-78
2023/03/27 06:00:10;;;;;;;2.30;1.00;;;5.60;99.90;;;;;;5094009;28;20927;-79
2023/03/27 06:02:38;;;;;;;1.10;1.00;;;5.60;99.90;;;;;;5100422;27;20489;-81
2023/03/27 06:05:12;;;;;;;1.53;1.37;;;5.70;99.90;;;;;;5111612;27;20508;-77
2023/03/27 06:07:39;;;;;;;1.50;1.40;;;5.70;99.90;;;;;;5106560;27;20442;-85
2023/03/27 06:10:07;;;;;;;1.60;1.47;;;5.80;99.90;;;;;;5103501;27;20537;-81
2023/03/27 06:12:36;;;;;;;2.30;1.20;;;5.80;99.90;;;;;;5090124;28;20481;-77
2023/03/27 06:15:04;;;;;;;2.50;2.30;;;5.80;99.90;;;;;;5098700;27;21382;-77
2023/03/27 06:17:31;;;;;;;2.20;1.87;;;5.90;99.90;;;;;;5099290;28;20466;-80
2023/03/27 06:19:58;;;;;;;1.20;1.10;;;5.90;99.90;;;;;;5103274;28;20515;-77
2023/03/27 06:22:26;;;;;;;1.97;1.87;;;5.90;99.90;;;;;;5097987;27;20570;-77
2023/03/27 06:24:54;;;;;;;1.33;1.23;;;6.00;99.90;;;;;;5101897;28;20894;-76
2023/03/27 06:27:21;;;;;;;1.73;1.63;;;6.00;99.90;;;;;;5100008;28;20474;-77
2023/03/27 06:29:48;;;;;;;1.60;1.50;;;6.10;99.90;;;;;;5097246;28;20482;-76
2023/03/27 06:32:16;;;;;;;2.40;1.60;;;6.20;99.90;;;;;;5101454;28;21031;-78
2023/03/27 06:34:44;;;;;;;2.27;1.13;;;6.20;99.90;;;;;;5101895;28;20864;-78
2023/03/27 06:37:11;;;;;;;1.07;0.93;;;6.20;99.90;;;;;;5099498;28;20456;-79
2023/03/27 06:39:41;;;;;;;1.03;0.93;;;6.10;99.90;;;;;;5102888;28;20463;-78
2023/03/27 06:42:09;;;;;;;1.27;1.17;;;6.10;99.90;;;;;;5099780;28;20447;-77
2023/03/27 06:44:36;;;;;;;1.43;1.33;;;6.10;99.90;;;;;;5097767;28;20490;-77
2023/03/27 06:47:03;;;;;;;1.13;1.03;;;6.00;99.90;;;;;;5099956;28;20837;-77
2023/03/27 06:49:30;;;;;;;1.23;1.13;;;6.10;99.90;;;;;;5103998;28;21039;-77
2023/03/27 06:51:57;;;;;;;0.80;0.80;;;6.00;99.90;;;;;;5102470;28;20931;-77
2023/03/27 06:54:24;;;;;;;2.10;1.90;;;6.10;99.90;;;;;;5099613;28;20470;-76
2023/03/27 06:56:52;;;;;;;1.30;1.20;;;6.10;99.90;;;;;;5102965;28;20442;-78
2023/03/27 06:59:19;;;;;;;1.90;1.50;;;6.10;99.90;;;;;;5094985;28;21031;-78
2023/03/27 07:01:46;;;;;;;1.57;1.30;;;6.10;99.90;;;;;;5102843;28;20446;-80
2023/03/27 07:04:13;;;;;;;1.00;0.77;;;6.10;99.90;;;;;;5100745;28;20562;-78
2023/03/27 07:06:40;;;;;;;1.10;1.10;;;6.20;99.90;;;;;;5106844;28;21046;-77
2023/03/27 07:09:08;;;;;;;1.40;1.13;;;6.20;99.90;;;;;;5103044;28;20482;-76
2023/03/27 07:11:35;;;;;;;1.33;1.10;;;6.10;99.90;;;;;;5110079;28;20457;-76
2023/03/27 07:14:03;;;;;;;5.27;1.50;;;6.20;99.90;;;;;;5096078;28;20458;-78
2023/03/27 07:16:30;;;;;;;2.60;1.10;;;6.20;99.90;;;;;;5104667;28;20808;-78
2023/03/27 07:18:57;;;;;;;1.07;0.97;;;6.20;99.90;;;;;;5105796;28;20499;-77
2023/03/27 07:21:25;;;;;;;1.53;1.20;;;6.20;99.90;;;;;;5099291;28;20470;-78
2023/03/27 07:23:52;;;;;;;1.53;1.10;;;6.10;99.90;;;;;;5098511;28;20531;-79
2023/03/27 07:26:20;;;;;;;1.20;1.10;;;6.10;99.90;;;;;;5096266;28;20494;-78
2023/03/27 07:28:49;;;;;;;2.80;1.63;;;6.10;99.90;;;;;;5107188;28;21291;-78
2023/03/27 07:31:17;;;;;;;1.67;1.50;;;6.20;99.90;;;;;;5097217;28;20467;-78
2023/03/27 07:33:44;;;;;;;2.40;1.80;;;6.20;99.90;;;;;;5101235;28;20480;-78
2023/03/27 07:36:13;;;;;;;1.30;1.20;;;6.20;99.90;;;;;;5102438;28;20462;-79
2023/03/27 07:38:40;;;;;;;1.00;0.90;;;6.20;99.90;;;;;;5107569;28;20617;-79
2023/03/27 07:41:08;;;;;;;1.83;1.73;;;6.20;99.90;;;;;;5107535;28;21127;-80
2023/03/27 07:43:35;;;;;;;0.80;0.80;;;6.10;99.90;;;;;;5107430;28;20494;-77
2023/03/27 07:46:04;;;;;;;2.57;1.53;;;6.00;99.90;;;;;;5103610;28;21104;-74
2023/03/27 07:48:34;;;;;;;1.23;0.63;;;5.80;99.90;;;;;;5105738;28;20511;-75
2023/03/27 07:51:02;;;;;;;0.77;0.77;;;5.60;99.90;;;;;;5110073;28;21167;-77
2023/03/27 07:53:29;;;;;;;1.23;1.13;;;5.60;99.90;;;;;;5103878;28;20826;-76
2023/03/27 07:55:57;;;;;;;3.23;0.80;;;5.40;99.90;;;;;;5103646;28;20958;-76
2023/03/27 07:58:25;;;;;;;1.17;0.60;;;5.10;99.90;;;;;;5113162;28;20461;-76
2023/03/27 08:00:52;;;;;;;0.63;0.50;;;4.60;99.90;;;;;;5112000;28;20450;-76
2023/03/27 08:03:20;;;;;;;0.47;0.40;;;4.60;99.90;;;;;;5114635;28;20435;-76
2023/03/27 08:05:55;;;;;;;1.30;0.40;;;4.50;99.90;;;;;;5127160;28;20437;-76
2023/03/27 08:08:22;;;;;;;0.60;0.60;;;4.30;99.90;;;;;;5119352;27;20448;-77
2023/03/27 08:10:49;;;;;;;0.43;0.30;;;4.30;99.90;;;;;;5106167;28;20517;-76
2023/03/27 08:13:17;;;;;;;0.50;0.20;;;4.40;99.90;;;;;;5097812;28;20462;-76
2023/03/27 08:15:44;;;;;;;1.07;0.20;;;4.40;99.90;;;;;;5102950;28;20454;-76
2023/03/27 08:18:11;;;;;;;0.40;0.20;;;4.50;99.90;;;;;;5099710;28;21273;-75
2023/03/27 08:20:39;;;;;;;0.93;0.30;;;4.50;99.90;;;;;;5102385;28;20507;-74
2023/03/27 08:23:07;;;;;;;2.30;0.30;;;4.40;99.90;;;;;;5102883;28;20455;-79
2023/03/27 08:25:34;;;;;;;0.40;0.20;;;4.30;99.90;;;;;;5102973;27;21014;-77
2023/03/27 08:28:01;;;;;;;1.33;0.50;;;4.20;99.90;;;;;;5097640;28;20565;-79
2023/03/27 08:30:28;;;;;;;0.40;0.30;;;4.20;99.90;;;;;;5106647;28;20510;-77
2023/03/27 08:32:55;;;;;;;0.40;0.30;;;4.20;99.90;;;;;;5109373;28;20578;-78
2023/03/27 08:35:22;;;;;;;1.23;0.67;;;4.20;99.90;;;;;;5107926;28;20496;-79
2023/03/27 08:37:51;;;;;;;0.40;0.30;;;4.30;99.90;;;;;;5106779;28;20452;-76
2023/03/27 08:40:24;;;;;;;0.97;0.40;;;4.30;99.90;;;;;;5102810;28;20477;-75
2023/03/27 08:42:55;;;;;;;0.40;0.30;;;4.30;99.90;;;;;;5101949;28;20547;-76
2023/03/27 08:45:26;;;;;;;0.60;0.40;;;4.30;99.90;;;;;;5097777;28;21020;-77
2023/03/27 08:47:59;;;;;;;0.50;0.30;;;4.30;99.90;;;;;;5092268;28;20447;-75
2023/03/27 08:50:33;;;;;;;0.40;0.30;;;4.40;99.90;;;;;;5106846;28;20539;-76
2023/03/27 08:53:03;;;;;;;1.47;0.33;;;4.30;99.90;;;;;;5099862;28;20462;-77
2023/03/27 08:55:39;;;;;;;1.07;0.43;;;4.40;99.90;;;;;;5099730;28;20504;-75
2023/03/27 08:58:12;;;;;;;0.60;0.40;;;4.40;99.90;;;;;;5098732;28;20451;-78
2023/03/27 09:00:41;;;;;;;0.53;0.30;;;4.40;99.90;;;;;;5107167;28;20458;-75
2023/03/27 09:03:15;;;;;;;0.57;0.37;;;4.50;99.90;;;;;;5108731;28;20446;-78
2023/03/27 09:05:45;;;;;;;0.40;0.30;;;4.40;99.90;;;;;;5098173;28;21008;-79
2023/03/27 09:08:24;;;;;;;1.47;0.30;;;4.40;99.90;;;;;;5099381;28;21170;-77
2023/03/27 09:11:01;;;;;;;1.33;0.30;;;4.40;99.90;;;;;;5099411;28;20489;-77
2023/03/27 09:13:33;;;;;;;0.43;0.30;;;4.30;99.90;;;;;;5101334;28;20515;-75
2023/03/27 09:16:03;;;;;;;0.73;0.40;;;4.40;99.90;;;;;;5096200;28;20450;-76
2023/03/27 09:18:36;;;;;;;0.40;0.30;;;4.30;99.90;;;;;;5097734;28;20512;-77
2023/03/27 09:21:07;;;;;;;0.43;0.40;;;4.30;99.90;;;;;;5100760;28;20524;-76
2023/03/27 09:23:40;;;;;;;0.40;0.27;;;4.30;99.90;;;;;;5109066;27;20473;-76
2023/03/27 09:26:12;;;;;;;0.40;0.30;;;4.30;99.90;;;;;;5103630;28;20900;-78
2023/03/27 09:28:49;;;;;;;0.93;0.30;;;4.40;99.90;;;;;;5095221;28;21017;-79
2023/03/27 09:31:23;;;;;;;0.37;0.30;;;4.50;99.90;;;;;;5106913;28;20450;-76
2023/03/27 09:33:51;;;;;;;0.67;0.30;;;4.60;99.90;;;;;;5100959;28;20517;-76
2023/03/27 09:36:18;;;;;;;0.40;0.30;;;4.70;99.90;;;;;;5103822;28;20451;-78
2023/03/27 09:38:49;;;;;;;0.50;0.30;;;4.70;99.90;;;;;;5101445;28;20520;-77
2023/03/27 09:41:22;;;;;;;0.30;0.20;;;4.60;99.90;;;;;;5105119;28;20462;-78
2023/03/27 09:43:55;;;;;;;0.40;0.30;;;4.60;99.90;;;;;;5090926;28;20466;-77
2023/03/27 09:46:25;;;;;;;0.40;0.23;;;4.70;99.90;;;;;;5104527;28;20431;-77
2023/03/27 09:48:58;;;;;;;0.40;0.20;;;4.80;99.90;;;;;;5102698;28;20462;-77
2023/03/27 09:51:43;;;;;;;0.50;0.30;;;4.90;99.90;;;;;;5104518;28;21052;-78
2023/03/27 09:54:13;;;;;;;0.40;0.30;;;4.90;99.90;;;;;;5094551;28;20927;-79
2023/03/27 09:56:45;;;;;;;0.40;0.30;;;4.90;99.90;;;;;;5097061;28;20913;-78
2023/03/27 09:59:22;;;;;;;0.60;0.40;;;4.90;99.90;;;;;;5107274;28;20441;-75
2023/03/27 10:01:51;;;;;;;0.70;0.30;;;4.70;99.90;;;;;;5106637;28;20468;-77
2023/03/27 10:04:20;;;;;;;0.93;0.30;;;4.50;99.90;;;;;;5105376;28;21015;-78
2023/03/27 10:06:50;;;;;;;0.40;0.30;;;4.30;99.90;;;;;;5097885;28;20467;-76
2023/03/27 10:09:23;;;;;;;0.50;0.40;;;4.20;99.90;;;;;;5102803;28;20474;-77
2023/03/27 10:11:59;;;;;;;0.40;0.30;;;4.10;99.90;;;;;;5101916;28;20500;-80
2023/03/27 10:14:26;;;;;;;0.40;0.30;;;4.00;99.90;;;;;;5096957;28;20447;-76
2023/03/27 10:16:53;;;;;;;0.40;0.30;;;4.00;99.90;;;;;;5107050;28;20450;-77
2023/03/27 10:19:25;;;;;;;0.40;0.30;;;4.10;99.90;;;;;;5111055;27;20443;-77
2023/03/27 10:21:54;;;;;;;0.40;0.30;;;4.20;99.90;;;;;;5105419;28;20990;-76
2023/03/27 10:24:29;;;;;;;0.40;0.30;;;4.30;99.90;;;;;;5106547;28;21103;-76
2023/03/27 10:26:59;;;;;;;0.30;0.20;;;4.40;99.90;;;;;;5103396;28;20486;-79
2023/03/27 10:29:30;;;;;;;0.50;0.40;;;4.50;99.90;;;;;;5099805;28;20443;-78
2023/03/27 10:31:58;;;;;;;0.50;0.30;;;4.60;99.90;;;;;;5097838;28;20454;-77
2023/03/27 10:34:35;;;;;;;0.50;0.50;;;4.70;99.90;;;;;;5103480;28;20455;-78
2023/03/27 10:37:03;;;;;;;0.50;0.30;;;4.80;99.90;;;;;;5107491;28;20577;-77
2023/03/27 10:39:34;;;;;;;0.50;0.33;;;4.80;99.90;;;;;;5122207;28;20443;-76
2023/03/27 10:42:09;;;;;;;1.87;0.40;;;4.80;99.90;;;;;;5131041;27;20438;-77
2023/03/27 10:44:38;;;;;;;0.40;0.30;;;4.80;99.90;;;;;;5106130;28;20956;-78
2023/03/27 10:47:06;;;;;;;0.50;0.30;;;4.90;99.90;;;;;;5104594;28;20447;-76
2023/03/27 10:49:42;;;;;;;0.40;0.30;;;4.90;99.90;;;;;;5104907;28;20482;-75
2023/03/27 10:52:20;;;;;;;0.53;0.30;;;4.90;99.90;;;;;;5097225;28;20967;-76
2023/03/27 10:54:59;;;;;;;1.30;0.40;;;4.80;99.90;;;;;;5100526;28;20487;-78
2023/03/27 10:57:30;;;;;;;0.40;0.30;;;4.70;99.90;;;;;;5094582;28;20493;-75
2023/03/27 11:00:01;;;;;;;0.50;0.50;;;4.60;99.90;;;;;;5098753;28;20482;-76
2023/03/27 11:02:37;;;;;;;1.63;0.77;;;4.60;99.90;;;;;;5100981;28;20980;-78
2023/03/27 11:05:10;;;;;;;0.60;0.50;;;4.70;99.90;;;;;;5099753;28;20457;-78
2023/03/27 11:07:42;;;;;;;1.37;0.80;;;4.80;99.90;;;;;;5098109;28;20945;-78
2023/03/27 11:10:16;;;;;;;0.73;0.60;;;4.80;99.90;;;;;;5100153;28;20474;-77
2023/03/27 11:12:51;;;;;;;1.37;0.80;;;4.90;99.90;;;;;;5104448;28;20515;-77
2023/03/27 11:15:21;;;;;;;1.07;0.50;;;4.80;99.90;;;;;;5103608;28;20454;-79
2023/03/27 11:17:54;;;;;;;3.53;1.53;;;4.80;99.90;;;;;;5099648;28;20454;-76
2023/03/27 11:20:25;;;;;;;0.77;0.43;;;4.70;99.90;;;;;;5100418;28;20471;-78
2023/03/27 11:22:57;;;;;;;0.87;0.63;;;4.60;99.90;;;;;;5095020;28;20466;-76
2023/03/27 11:25:35;;;;;;;1.83;0.70;;;4.50;99.90;;;;;;5095586;28;20470;-76
2023/03/27 11:28:12;;;;;;;0.53;0.40;;;4.50;99.90;;;;;;5096737;28;20485;-76
2023/03/27 11:30:45;;;;;;;0.70;0.50;;;4.40;99.90;;;;;;5094964;28;20486;-78
2023/03/27 11:33:31;;;;;;;0.50;0.50;;;4.40;99.90;;;;;;5102977;28;20439;-76
2023/03/27 11:36:07;;;;;;;0.40;0.37;;;4.40;99.90;;;;;;5101942;28;20463;-75
2023/03/27 11:38:38;;;;;;;0.50;0.30;;;4.50;99.90;;;;;;5101557;28;20461;-77
2023/03/27 11:41:06;;;;;;;0.93;0.50;;;4.60;99.90;;;;;;5098588;28;20526;-78
2023/03/27 11:43:38;;;;;;;0.50;0.30;;;4.80;99.90;;;;;;5097200;28;20457;-77
2023/03/27 11:46:19;;;;;;;0.50;0.47;;;5.00;99.90;;;;;;5099923;28;20454;-78
2023/03/27 11:49:09;;;;;;;0.63;0.40;;;5.10;99.90;;;;;;5097400;28;20529;-76
2023/03/27 11:51:49;;;;;;;0.70;0.40;;;5.00;99.90;;;;;;5100760;28;20523;-77
2023/03/27 11:54:28;;;;;;;0.40;0.40;;;4.90;99.30;;;;;;5107677;28;20523;-77
2023/03/27 11:56:56;;;;;;;0.60;0.50;;;4.80;99.50;;;;;;5101542;28;20489;-78
2023/03/27 11:59:45;;;;;;;0.80;0.40;;;4.70;99.90;;;;;;5106026;28;20938;-77
2023/03/27 12:02:38;;;;;;;0.77;0.50;;;4.70;99.90;;;;;;5099611;28;20538;-76
2023/03/27 12:05:13;;;;;;;1.97;0.77;;;4.60;99.90;;;;;;5103276;28;20490;-77
2023/03/27 12:07:47;;;;;;;11.17;4.77;;;4.60;99.90;;;;;;5094993;28;20470;-76
2023/03/27 12:10:26;;;;;;;2.17;0.80;;;4.60;99.90;;;;;;5095830;28;20564;-75
2023/03/27 12:13:12;;;;;;;0.70;0.63;;;4.60;99.90;;;;;;5100705;28;20459;-78
2023/03/27 12:16:08;;;;;;;1.33;0.50;;;4.40;99.90;;;;;;5100592;28;20528;-77
2023/03/27 12:18:46;;;;;;;1.27;0.50;;;4.40;99.90;;;;;;5099540;28;20470;-76
2023/03/27 12:21:22;;;;;;;1.23;0.70;;;4.60;99.90;;;;;;5099062;28;20794;-77
2023/03/27 12:24:18;;;;;;;0.70;0.50;;;4.90;99.90;;;;;;5104243;28;20935;-79
2023/03/27 12:27:00;;;;;;;0.80;0.60;;;5.10;99.90;;;;;;5096860;28;20471;-78
2023/03/27 12:29:44;;;;;;;1.53;0.90;;;5.40;99.90;;;;;;5098120;28;20844;-77
2023/03/27 12:32:25;;;;;;;2.40;0.80;;;5.40;99.90;;;;;;5099709;28;20540;-75
2023/03/27 12:34:54;;;;;;;1.13;0.83;;;5.20;99.90;;;;;;5096046;28;20446;-77
2023/03/27 12:37:28;;;;;;;4.03;1.33;;;5.00;99.90;;;;;;5103283;28;20515;-74
2023/03/27 12:39:58;;;;;;;2.57;1.40;;;5.00;99.90;;;;;;5108282;28;20476;-75
2023/03/27 12:42:50;;;;;;;1.90;1.60;;;5.00;99.90;;;;;;5104354;28;20526;-78
2023/03/27 12:45:18;;;;;;;3.37;0.77;;;5.20;99.90;;;;;;5100202;28;20459;-78
2023/03/27 12:48:05;;;;;;;1.40;1.20;;;5.30;99.90;;;;;;5104746;28;20530;-76
2023/03/27 12:50:35;;;;;;;1.73;1.53;;;5.40;99.90;;;;;;5096387;28;20486;-75
2023/03/27 12:53:04;;;;;;;1.33;0.80;;;5.40;99.90;;;;;;5104835;28;20458;-75
2023/03/27 12:55:36;;;;;;;1.23;1.13;;;5.20;99.90;;;;;;5104321;28;20465;-78
2023/03/27 12:58:04;;;;;;;1.03;0.93;;;5.10;99.90;;;;;;5106434;28;20443;-76
2023/03/27 13:00:33;;;;;;;1.00;1.00;;;5.10;99.90;;;;;;5104419;28;20547;-76
2023/03/27 13:03:40;;;;;;;0.90;0.90;;;5.00;99.90;;;;;;5101378;28;20459;-78
2023/03/27 13:06:30;;;;;;;3.13;0.90;;;5.00;99.90;;;;;;5097432;28;20920;-76
2023/03/27 13:09:25;;;;;;;0.90;0.60;;;5.10;99.90;;;;;;5110774;28;20517;-78
2023/03/27 13:12:11;;;;;;;2.27;0.83;;;5.20;99.80;;;;;;5029610;28;20883;-76
2023/03/27 13:15:31;;;;;;;1.00;0.63;;;5.50;99.90;;;;;;5110683;28;20471;-79
2023/03/27 13:18:21;;;;;;;1.40;0.87;;;5.90;99.10;;;;;;5052266;28;20432;-77
2023/03/27 13:20:59;;;;;;;4.37;1.10;;;6.40;99.90;;;;;;5027048;28;21086;-75
2023/03/27 13:23:41;;;;;;;0.70;0.70;;;6.40;98.20;;;;;;5072776;28;20446;-76